createdAt,value
2018-12-15T00:09:29.933Z,44.5
2018-12-15T00:19:29.086Z,45.2
2018-12-15T00:29:28.294Z,45.9
2018-12-15T00:39:27.496Z,46.6
2018-12-15T00:49:26.706Z,47.2
2018-12-15T00:59:25.911Z,47.9
2018-12-15T01:09:25.123Z,48.6
2018-12-15T01:19:24.330Z,49.3
2018-12-15T01:29:23.587Z,49.9
2018-12-15T01:39:22.746Z,50.5
2018-12-15T01:49:21.958Z,51.4
2018-12-15T01:59:21.155Z,52
2018-12-15T02:09:20.367Z,52.8
2018-12-15T02:19:19.580Z,53.4
2018-12-15T02:29:18.775Z,54.1
2018-12-15T02:39:17.986Z,54.8
2018-12-15T02:49:17.190Z,55.4
2018-12-15T02:59:16.449Z,56.1
2018-12-15T03:09:15.602Z,56.8
2018-12-15T03:19:14.812Z,57.6
2018-12-15T03:29:14.022Z,58.2
2018-12-15T03:39:13.229Z,58.9
2018-12-15T03:49:12.429Z,59.6
2018-12-15T03:59:11.635Z,60.2
2018-12-15T04:09:10.852Z,60.1
2018-12-15T04:19:10.055Z,59.9
2018-12-15T04:29:09.252Z,59.8
2018-12-15T04:39:08.460Z,59.8
2018-12-15T04:49:07.665Z,59.7
2018-12-15T04:59:06.875Z,59.6
2018-12-15T05:09:06.079Z,59.5
2018-12-15T05:19:05.286Z,59.4
2018-12-15T05:29:04.491Z,59.4
2018-12-15T05:39:03.690Z,59.3
2018-12-15T05:49:02.898Z,59.3
2018-12-15T05:59:02.105Z,59.2
2018-12-15T06:09:01.310Z,59.1
2018-12-15T06:19:00.519Z,59.1
2018-12-15T06:28:59.717Z,59
2018-12-15T06:38:58.923Z,58.9
2018-12-15T06:48:58.120Z,58.9
2018-12-15T06:58:57.327Z,58.7
2018-12-15T07:08:56.545Z,40.4
2018-12-15T07:18:55.746Z,35.2
2018-12-15T07:28:54.939Z,33.7
2018-12-15T07:38:54.149Z,32.3
2018-12-15T07:48:53.357Z,32.8
2018-12-15T07:58:52.567Z,32.9
2018-12-15T08:08:51.771Z,32.9
2018-12-15T08:18:50.986Z,33
2018-12-15T08:28:50.202Z,33.2
2018-12-15T08:38:49.404Z,33
2018-12-15T08:48:48.615Z,31.9
2018-12-15T08:58:47.815Z,31.9
2018-12-15T09:08:47.029Z,30.9
2018-12-15T09:18:46.287Z,31.4
2018-12-15T09:28:45.497Z,31.9
2018-12-15T09:38:44.665Z,30.3
2018-12-15T09:48:43.871Z,29.6
2018-12-15T09:58:43.075Z,29.4
2018-12-15T10:08:42.290Z,29.2
2018-12-15T10:18:41.500Z,27.4
2018-12-15T10:28:40.718Z,28
2018-12-15T10:38:39.928Z,27.9
2018-12-15T10:48:39.143Z,27.8
2018-12-15T10:58:38.357Z,27.8
2018-12-15T11:08:37.569Z,27.9
2018-12-15T11:18:36.779Z,28
2018-12-15T11:38:35.205Z,27.6
2018-12-15T11:48:34.419Z,27.8
2018-12-15T11:58:33.631Z,27.3
2018-12-15T12:08:32.846Z,27.5
2018-12-15T12:18:32.057Z,26.6
2018-12-15T12:28:31.269Z,26.8
2018-12-15T12:38:30.498Z,26.9
2018-12-15T12:48:29.708Z,26.9
2018-12-15T12:58:28.926Z,26.9
2018-12-15T13:08:28.149Z,27
2018-12-15T13:18:27.370Z,27.1
2018-12-15T13:28:26.596Z,27.1
2018-12-15T13:38:25.815Z,26.9
2018-12-15T13:48:25.018Z,26.8
2018-12-15T13:58:24.237Z,26.9
2018-12-15T14:08:23.443Z,27
2018-12-15T14:18:22.657Z,26.9
2018-12-15T14:28:21.871Z,26.9
2018-12-15T14:38:21.132Z,26.9
2018-12-15T14:48:20.296Z,27
2018-12-15T14:58:19.498Z,27
2018-12-15T15:08:18.704Z,27
2018-12-15T15:18:17.920Z,27.1
2018-12-15T15:28:17.127Z,27.1
2018-12-15T15:38:16.390Z,27.1
2018-12-15T15:48:15.543Z,27.1
2018-12-15T15:58:14.797Z,27.2
2018-12-15T16:08:13.969Z,27.2
2018-12-15T16:18:13.166Z,26.8
2018-12-15T16:28:12.408Z,26.8
2018-12-15T16:38:11.592Z,26.9
2018-12-15T16:48:10.814Z,26.3
2018-12-15T16:58:10.019Z,25.4
2018-12-15T17:08:09.229Z,25.2
2018-12-15T17:18:08.441Z,24.9
2018-12-15T17:28:07.670Z,23.6
2018-12-15T17:38:06.872Z,22.4
2018-12-15T17:48:06.086Z,21.4
2018-12-15T17:58:05.306Z,21.2
2018-12-15T18:08:04.524Z,20.9
2018-12-15T18:18:03.738Z,20.9
2018-12-15T18:28:02.951Z,20.8
2018-12-15T18:38:02.171Z,20.8
2018-12-15T18:48:01.386Z,20.9
2018-12-15T18:58:00.601Z,21
2018-12-15T19:07:59.814Z,21
2018-12-15T19:17:59.020Z,21
2018-12-15T19:27:58.232Z,20.9
2018-12-15T19:37:57.453Z,20.9
2018-12-15T19:47:56.670Z,20.1
2018-12-15T19:57:55.888Z,19.9
2018-12-15T20:07:55.095Z,19.9
2018-12-15T20:17:54.315Z,20.1
2018-12-15T20:27:53.534Z,20.3
2018-12-15T20:37:52.752Z,20.2
2018-12-15T20:47:51.961Z,19.8
2018-12-15T20:57:51.178Z,20
2018-12-15T21:07:50.395Z,20.2
2018-12-15T21:17:49.616Z,20.1
2018-12-15T21:27:48.835Z,20.4
2018-12-15T21:37:48.055Z,20.6
2018-12-15T21:47:47.266Z,20.9
2018-12-15T21:57:46.477Z,21.4
2018-12-15T22:07:45.695Z,21.8
2018-12-15T22:17:44.908Z,22.4
2018-12-15T22:27:44.119Z,22.9
2018-12-15T22:37:43.321Z,23.6
2018-12-15T22:47:42.535Z,24.2
2018-12-15T22:57:41.752Z,24.9
2018-12-15T23:07:40.958Z,25.6
2018-12-15T23:17:40.163Z,26.3
2018-12-15T23:27:39.383Z,27
2018-12-15T23:37:38.596Z,27.8
2018-12-15T23:47:37.797Z,28.5
2018-12-15T23:57:37.006Z,29.3
